createdAt,value
2022-08-03T00:02:08.183Z,7.47
2022-08-03T00:04:54.326Z,9.02
2022-08-03T00:07:41.091Z,8.25
2022-08-03T00:10:26.949Z,9.27
2022-08-03T00:13:13.203Z,6.90
2022-08-03T00:15:59.057Z,5.20
2022-08-03T00:18:44.697Z,7.45
2022-08-03T00:21:29.927Z,6.70
2022-08-03T00:24:15.179Z,7.32
2022-08-03T00:27:00.307Z,5.57
2022-08-03T00:29:59.741Z,7.97
2022-08-03T00:32:45.882Z,5.63
2022-08-03T00:35:36.800Z,5.35
2022-08-03T00:38:22.736Z,9.35
2022-08-03T00:41:08.287Z,10.75
2022-08-03T00:43:53.703Z,5.68
2022-08-03T00:46:38.792Z,4.85
2022-08-03T00:49:27.041Z,4.95
2022-08-03T00:52:15.302Z,7.72
2022-08-03T00:55:01.707Z,8.73
2022-08-03T00:57:47.623Z,5.22
2022-08-03T01:00:41.652Z,4.97
2022-08-03T01:03:27.195Z,6.18
2022-08-03T01:06:20.222Z,10.45
2022-08-03T01:09:35.152Z,6.72
2022-08-03T01:12:34.987Z,8.15
2022-08-03T01:15:38.643Z,5.68
2022-08-03T01:18:58.033Z,6.32
2022-08-03T01:22:08.893Z,7.03
2022-08-03T01:25:18.748Z,10.02
2022-08-03T01:31:10.304Z,12.15
2022-08-03T01:34:02.905Z,7.20
2022-08-03T01:36:56.665Z,9.45
2022-08-03T01:39:44.270Z,6.07
2022-08-03T01:42:32.577Z,8.45
2022-08-03T01:45:19.451Z,7.25
2022-08-03T01:48:05.548Z,6.45
2022-08-03T01:50:51.865Z,4.70
2022-08-03T01:53:42.681Z,8.20
2022-08-03T01:56:29.923Z,6.53
2022-08-03T01:59:17.346Z,5.18
2022-08-03T02:02:29.184Z,9.32
2022-08-03T02:05:12.746Z,4.50
2022-08-03T02:07:59.290Z,11.48
2022-08-03T02:10:46.178Z,7.82
2022-08-03T02:13:33.615Z,5.10
2022-08-03T02:16:20.312Z,6.55
2022-08-03T02:19:08.514Z,6.97
2022-08-03T02:21:56.802Z,3.45
2022-08-03T02:24:49.347Z,4.50
2022-08-03T02:27:43.500Z,8.57
2022-08-03T02:30:40.321Z,5.72
2022-08-03T02:33:32.119Z,4.43
2022-08-03T02:36:23.543Z,9.93
2022-08-03T02:39:13.450Z,4.97
2022-08-03T02:42:03.429Z,7.82
2022-08-03T02:44:51.397Z,6.85
2022-08-03T02:47:53.787Z,6.97
2022-08-03T02:50:42.101Z,7.70
2022-08-03T02:53:30.592Z,11.38
2022-08-03T02:56:18.144Z,11.43
2022-08-03T02:59:05.895Z,10.05
2022-08-03T03:01:53.896Z,6.13
2022-08-03T03:04:41.202Z,8.27
2022-08-03T03:07:51.675Z,6.43
2022-08-03T03:10:39.743Z,5.47
2022-08-03T03:13:26.896Z,5.22
2022-08-03T03:16:14.257Z,5.75
2022-08-03T03:19:01.664Z,7.88
2022-08-03T03:21:47.553Z,8.48
2022-08-03T03:24:34.766Z,6.32
2022-08-03T03:27:21.313Z,5.32
2022-08-03T03:30:09.179Z,8.48
2022-08-03T03:32:55.133Z,5.47
2022-08-03T03:35:43.139Z,4.53
2022-08-03T03:38:28.789Z,11.18
2022-08-03T03:41:14.722Z,8.10
2022-08-03T03:44:02.874Z,9.05
2022-08-03T03:46:48.408Z,10.65
2022-08-03T03:49:34.727Z,11.45
2022-08-03T03:52:22.570Z,14.45
2022-08-03T03:55:08.241Z,7.70
2022-08-03T03:57:53.403Z,6.97
2022-08-03T04:00:38.615Z,6.88
2022-08-03T04:03:24.022Z,7.65
2022-08-03T04:06:27.676Z,12.25
2022-08-03T04:09:31.371Z,9.80
2022-08-03T04:12:19.586Z,9.05
2022-08-03T04:15:06.108Z,12.35
2022-08-03T04:17:55.423Z,10.65
2022-08-03T04:20:45.609Z,8.63
2022-08-03T04:23:35.602Z,8.32
2022-08-03T04:26:24.609Z,15.15
2022-08-03T04:29:10.970Z,8.80
2022-08-03T04:31:58.688Z,10.55
2022-08-03T04:34:44.738Z,20.83
2022-08-03T04:37:40.431Z,10.38
2022-08-03T04:40:32.834Z,9.95
2022-08-03T04:43:19.778Z,12.20
2022-08-03T04:46:07.742Z,48.30
2022-08-03T04:48:53.464Z,34.70
2022-08-03T04:51:40.443Z,25.27
2022-08-03T04:54:25.929Z,16.17
2022-08-03T04:57:18.145Z,13.23
2022-08-03T05:00:09.282Z,13.55
2022-08-03T05:02:55.348Z,9.68
2022-08-03T05:05:49.715Z,12.13
2022-08-03T05:08:36.086Z,16.45
2022-08-03T05:11:31.671Z,17.17
2022-08-03T05:14:17.006Z,9.40
2022-08-03T05:17:12.972Z,10.05
2022-08-03T05:19:58.341Z,6.75
2022-08-03T05:22:43.731Z,10.38
2022-08-03T05:25:29.203Z,8.23
2022-08-03T05:28:14.373Z,7.20
2022-08-03T05:30:59.650Z,10.27
2022-08-03T05:33:45.098Z,8.45
2022-08-03T05:36:30.370Z,6.05
2022-08-03T05:39:15.599Z,7.18
2022-08-03T05:42:01.480Z,6.85
2022-08-03T05:44:46.811Z,5.90
2022-08-03T05:47:32.184Z,13.32
2022-08-03T05:50:19.269Z,12.70
2022-08-03T05:53:04.607Z,12.80
2022-08-03T05:55:54.774Z,10.00
2022-08-03T05:58:48.075Z,16.33
2022-08-03T06:01:33.526Z,10.77
2022-08-03T06:04:18.718Z,7.65
2022-08-03T06:07:03.855Z,5.70
2022-08-03T06:10:34.255Z,8.57
2022-08-03T06:12:54.851Z,7.40
2022-08-03T06:15:40.086Z,8.07
2022-08-03T06:18:25.470Z,6.18
2022-08-03T06:21:15.663Z,6.97
2022-08-03T06:24:01.303Z,5.82
2022-08-03T06:26:47.697Z,7.72
2022-08-03T06:29:32.980Z,9.30
2022-08-03T06:32:18.764Z,6.57
2022-08-03T06:35:09.993Z,3.90
2022-08-03T06:37:55.623Z,5.28
2022-08-03T06:40:41.127Z,6.82
2022-08-03T06:43:26.566Z,9.15
2022-08-03T06:46:12.136Z,24.60
2022-08-03T06:48:57.199Z,13.00
2022-08-03T06:52:03.051Z,10.50
2022-08-03T06:54:47.492Z,15.32
2022-08-03T06:57:33.028Z,9.57
2022-08-03T07:00:19.144Z,7.47
2022-08-03T07:03:04.432Z,7.32
2022-08-03T07:05:50.894Z,5.40
2022-08-03T07:08:37.291Z,12.15
2022-08-03T07:11:22.693Z,8.93
2022-08-03T07:14:08.154Z,14.95
2022-08-03T07:16:53.444Z,11.85
2022-08-03T07:19:38.790Z,15.18
2022-08-03T07:22:24.088Z,9.90
2022-08-03T07:25:12.315Z,7.18
2022-08-03T07:27:57.465Z,9.18
2022-08-03T07:30:43.578Z,5.78
2022-08-03T07:33:28.660Z,5.93
2022-08-03T07:36:14.006Z,3.95
2022-08-03T07:38:59.197Z,9.02
2022-08-03T07:41:45.786Z,5.57
2022-08-03T07:44:31.039Z,6.28
2022-08-03T07:47:22.785Z,3.97
2022-08-03T07:50:08.979Z,5.00
2022-08-03T07:52:56.031Z,5.55
2022-08-03T07:55:41.218Z,4.38
2022-08-03T07:58:26.787Z,4.80
2022-08-03T08:01:12.009Z,6.72
2022-08-03T08:04:00.512Z,5.13
2022-08-03T08:06:46.507Z,4.25
2022-08-03T08:09:31.792Z,6.60
2022-08-03T08:12:17.255Z,4.30
2022-08-03T08:15:07.747Z,9.25
2022-08-03T08:17:56.438Z,4.28
2022-08-03T08:20:41.704Z,5.28
2022-08-03T08:23:41.698Z,2.75
2022-08-03T08:26:37.111Z,3.90
2022-08-03T08:29:23.318Z,7.15
2022-08-03T08:32:09.002Z,3.90
2022-08-03T08:34:54.509Z,4.30
2022-08-03T08:37:40.671Z,3.97
2022-08-03T08:40:27.670Z,2.88
2022-08-03T08:43:12.950Z,2.53
2022-08-03T08:45:59.623Z,6.28
2022-08-03T08:48:46.782Z,3.70
2022-08-03T08:51:54.601Z,5.07
2022-08-03T08:54:45.094Z,12.88
2022-08-03T08:57:52.685Z,6.00
2022-08-03T09:00:38.114Z,4.55
2022-08-03T09:03:29.589Z,6.07
2022-08-03T09:06:16.422Z,4.93
2022-08-03T09:09:01.933Z,5.43
2022-08-03T09:12:00.829Z,4.45
2022-08-03T09:15:14.875Z,4.55
2022-08-03T09:17:57.139Z,4.15
2022-08-03T09:20:42.466Z,4.28
2022-08-03T09:24:01.058Z,2.55
2022-08-03T09:26:52.228Z,2.33
2022-08-03T09:29:51.199Z,4.93
2022-08-03T09:32:37.352Z,3.40
2022-08-03T09:35:51.547Z,3.97
2022-08-03T09:38:33.327Z,6.07
2022-08-03T09:41:19.627Z,4.65
2022-08-03T09:44:05.139Z,2.75
2022-08-03T09:46:50.322Z,8.75
2022-08-03T09:49:37.052Z,6.88
2022-08-03T09:52:37.653Z,4.28
2022-08-03T09:56:34.480Z,7.95
2022-08-03T09:58:31.741Z,6.38
2022-08-03T10:01:25.261Z,4.53
2022-08-03T10:04:16.736Z,11.30
2022-08-03T10:07:10.517Z,5.22
2022-08-03T10:10:29.601Z,11.18
2022-08-03T10:13:06.082Z,8.73
2022-08-03T10:16:21.351Z,6.25
2022-08-03T10:18:57.674Z,5.30
2022-08-03T10:21:49.784Z,6.88
2022-08-03T10:24:38.307Z,7.78
2022-08-03T10:27:25.844Z,3.22
2022-08-03T10:30:12.069Z,5.28
2022-08-03T10:33:51.719Z,2.83
2022-08-03T10:36:18.344Z,3.88
2022-08-03T10:39:04.240Z,7.13
2022-08-03T10:42:03.068Z,3.80
2022-08-03T10:44:52.857Z,2.47
2022-08-03T10:47:40.068Z,2.75
2022-08-03T10:50:56.623Z,4.28
2022-08-03T10:53:42.352Z,2.25
2022-08-03T10:56:51.207Z,4.00
2022-08-03T10:59:45.496Z,7.97
2022-08-03T11:03:06.634Z,9.00
2022-08-03T11:05:54.438Z,5.75
2022-08-03T11:08:39.938Z,7.60
2022-08-03T11:11:26.338Z,6.63
2022-08-03T11:14:21.943Z,3.33
2022-08-03T11:17:14.466Z,10.60
2022-08-03T11:20:00.456Z,6.40
2022-08-03T11:22:51.450Z,2.65
2022-08-03T11:26:18.848Z,1.50
2022-08-03T11:29:30.112Z,4.00
2022-08-03T11:32:39.917Z,3.42
2022-08-03T11:35:36.938Z,3.72
2022-08-03T11:38:24.635Z,6.38
2022-08-03T11:41:33.113Z,1.45
2022-08-03T11:44:40.971Z,3.88
2022-08-03T11:47:28.947Z,5.28
2022-08-03T11:50:17.439Z,3.58
2022-08-03T11:53:02.723Z,4.05
2022-08-03T11:55:53.511Z,3.90
2022-08-03T11:59:02.659Z,8.48
2022-08-03T12:02:09.928Z,4.72
2022-08-03T12:05:01.450Z,3.25
2022-08-03T12:08:03.994Z,2.92
2022-08-03T12:10:51.535Z,5.50
2022-08-03T12:14:37.373Z,1.70
2022-08-03T12:16:49.242Z,1.52
2022-08-03T12:19:44.557Z,2.47
2022-08-03T12:22:40.688Z,3.08
2022-08-03T12:25:38.754Z,9.32
2022-08-03T12:28:36.949Z,3.03
2022-08-03T12:31:23.798Z,3.33
2022-08-03T12:34:09.310Z,2.70
2022-08-03T12:36:59.264Z,7.15
2022-08-03T12:40:02.163Z,4.28
2022-08-03T12:42:49.331Z,4.45
2022-08-03T12:45:34.759Z,3.78
2022-08-03T12:48:19.902Z,4.50
2022-08-03T12:51:10.794Z,6.38
2022-08-03T12:53:57.829Z,6.53
2022-08-03T12:57:15.569Z,4.72
2022-08-03T13:00:21.633Z,1.70
2022-08-03T13:03:41.821Z,5.40
2022-08-03T13:06:25.854Z,5.13
2022-08-03T13:09:11.313Z,6.68
2022-08-03T13:12:20.955Z,4.57
2022-08-03T13:15:06.829Z,5.47
2022-08-03T13:17:52.658Z,21.08
2022-08-03T13:20:37.867Z,20.08
2022-08-03T13:23:23.038Z,20.17
2022-08-03T13:26:08.882Z,7.25
2022-08-03T13:28:54.006Z,7.10
2022-08-03T13:31:50.448Z,3.17
2022-08-03T13:34:37.906Z,6.75
2022-08-03T13:37:23.871Z,3.42
2022-08-03T13:40:11.580Z,5.13
2022-08-03T13:42:57.159Z,6.88
2022-08-03T13:45:47.530Z,5.30
2022-08-03T13:48:37.229Z,1.60
2022-08-03T13:51:23.470Z,2.95
2022-08-03T13:54:09.218Z,6.65
2022-08-03T13:56:57.816Z,7.30
2022-08-03T13:59:46.142Z,6.57
2022-08-03T14:02:34.431Z,8.43
2022-08-03T14:05:19.907Z,13.75
2022-08-03T14:08:06.824Z,6.35
2022-08-03T14:10:52.025Z,6.90
2022-08-03T14:13:38.466Z,3.63
2022-08-03T14:16:25.911Z,7.70
2022-08-03T14:19:12.601Z,6.10
2022-08-03T14:22:06.554Z,5.78
2022-08-03T14:24:52.670Z,8.27
2022-08-03T14:27:39.044Z,9.98
2022-08-03T14:30:24.582Z,6.15
2022-08-03T14:33:10.539Z,8.75
2022-08-03T14:35:55.953Z,13.68
2022-08-03T14:38:41.378Z,5.53
2022-08-03T14:41:27.590Z,4.28
2022-08-03T14:44:13.124Z,9.43
2022-08-03T14:46:58.470Z,5.43
2022-08-03T14:50:30.417Z,3.17
2022-08-03T14:52:49.570Z,10.30
2022-08-03T14:55:38.383Z,6.85
2022-08-03T14:58:27.827Z,2.55
2022-08-03T15:02:04.675Z,3.47
2022-08-03T15:04:21.751Z,4.63
2022-08-03T15:07:07.278Z,2.72
2022-08-03T15:09:52.648Z,5.20
2022-08-03T15:12:37.946Z,9.45
2022-08-03T15:15:23.343Z,4.30
2022-08-03T15:18:09.024Z,3.92
2022-08-03T15:20:55.297Z,4.05
2022-08-03T15:23:41.116Z,1.67
2022-08-03T15:26:32.947Z,3.17
2022-08-03T15:30:07.594Z,14.48
2022-08-03T15:32:26.002Z,34.13
2022-08-03T15:35:11.767Z,16.95
2022-08-03T15:37:57.506Z,13.23
2022-08-03T15:40:43.111Z,16.45
2022-08-03T15:43:29.373Z,10.43
2022-08-03T15:46:30.525Z,11.25
2022-08-03T15:49:16.977Z,6.22
2022-08-03T15:52:02.540Z,8.95
2022-08-03T15:54:47.582Z,9.43
2022-08-03T15:57:32.854Z,8.93
2022-08-03T16:00:18.574Z,7.97
2022-08-03T16:03:04.028Z,8.18
2022-08-03T16:05:49.397Z,7.63
2022-08-03T16:08:34.517Z,7.00
2022-08-03T16:11:19.892Z,4.28
2022-08-03T16:14:30.939Z,4.97
2022-08-03T16:17:11.005Z,5.25
2022-08-03T16:19:59.226Z,7.25
2022-08-03T16:22:48.225Z,6.57
2022-08-03T16:25:33.810Z,7.47
2022-08-03T16:28:19.485Z,3.50
2022-08-03T16:31:06.071Z,6.07
2022-08-03T16:33:51.208Z,5.78
2022-08-03T16:36:36.664Z,9.15
2022-08-03T16:39:21.947Z,8.75
2022-08-03T16:42:07.372Z,4.10
2022-08-03T16:44:52.561Z,3.92
2022-08-03T16:47:37.808Z,9.13
2022-08-03T16:50:25.540Z,3.97
2022-08-03T16:53:16.906Z,35.78
2022-08-03T16:56:06.710Z,41.22
2022-08-03T16:58:55.315Z,48.35
2022-08-03T17:01:41.102Z,38.63
2022-08-03T17:04:27.406Z,34.95
2022-08-03T17:07:16.654Z,26.88
2022-08-03T17:10:02.135Z,36.70
2022-08-03T17:12:47.794Z,24.20
2022-08-03T17:15:38.395Z,31.20
2022-08-03T17:18:47.487Z,30.83
2022-08-03T17:21:39.303Z,27.25
2022-08-03T17:24:31.120Z,24.60
2022-08-03T17:28:48.991Z,22.70
2022-08-03T17:30:47.904Z,19.80
2022-08-03T17:33:35.672Z,36.15
2022-08-03T17:36:22.610Z,23.67
2022-08-03T17:39:16.902Z,20.83
2022-08-03T17:42:05.236Z,28.35
2022-08-03T17:45:15.781Z,34.17
2022-08-03T17:48:01.125Z,21.33
2022-08-03T17:50:54.194Z,19.42
2022-08-03T17:53:49.571Z,20.13
2022-08-03T17:56:46.241Z,11.23
2022-08-03T18:00:32.639Z,5.50
2022-08-03T18:03:22.862Z,19.70
2022-08-03T18:06:12.506Z,20.95
2022-08-03T18:09:00.074Z,15.82
2022-08-03T18:11:58.113Z,11.02
2022-08-03T18:14:57.221Z,16.00
2022-08-03T18:17:55.821Z,10.27
2022-08-03T18:20:48.624Z,17.77
2022-08-03T18:23:37.257Z,14.18
2022-08-03T18:26:24.062Z,17.00
2022-08-03T18:29:12.562Z,12.15
2022-08-03T18:32:03.953Z,22.23
2022-08-03T18:35:07.618Z,21.38
2022-08-03T18:38:00.902Z,13.50
2022-08-03T18:40:48.480Z,15.45
2022-08-03T18:44:09.507Z,17.55
2022-08-03T18:47:04.472Z,11.37
2022-08-03T18:50:19.227Z,14.48
2022-08-03T18:54:01.840Z,10.73
2022-08-03T18:56:51.540Z,13.68
2022-08-03T19:00:16.674Z,13.60
2022-08-03T19:03:10.102Z,12.18
2022-08-03T19:06:08.613Z,14.43
2022-08-03T19:09:12.857Z,14.43
2022-08-03T19:12:12.526Z,16.13
2022-08-03T19:15:12.559Z,17.77
2022-08-03T19:20:46.704Z,20.10
2022-08-03T19:23:34.089Z,20.20
2022-08-03T19:26:31.162Z,19.13
2022-08-03T19:29:20.203Z,18.17
2022-08-03T19:32:08.871Z,15.63
2022-08-03T19:34:55.340Z,16.08
2022-08-03T19:37:44.227Z,18.75
2022-08-03T19:40:33.857Z,14.30
2022-08-03T19:46:43.318Z,13.65
2022-08-03T19:52:43.747Z,12.80
2022-08-03T19:55:32.285Z,15.93
2022-08-03T19:58:24.535Z,15.18
2022-08-03T20:01:21.393Z,11.40
2022-08-03T20:04:07.036Z,10.55
2022-08-03T20:06:57.040Z,10.60
2022-08-03T20:09:44.609Z,11.07
2022-08-03T20:12:39.104Z,12.38
2022-08-03T20:15:31.340Z,9.38
2022-08-03T20:18:17.450Z,12.98
2022-08-03T20:21:14.808Z,10.55
2022-08-03T20:24:23.709Z,9.75
2022-08-03T20:30:07.693Z,12.13
2022-08-03T20:32:53.080Z,9.55
2022-08-03T20:35:41.901Z,11.20
2022-08-03T20:38:31.322Z,10.38
2022-08-03T20:41:17.609Z,11.40
2022-08-03T20:44:04.378Z,12.23
2022-08-03T20:46:53.113Z,15.73
2022-08-03T20:49:46.018Z,13.15
2022-08-03T20:52:49.321Z,10.75
2022-08-03T20:55:47.518Z,11.43
2022-08-03T20:58:41.634Z,10.00
2022-08-03T21:01:36.179Z,11.27
2022-08-03T21:04:22.074Z,14.07
2022-08-03T21:07:16.628Z,14.93
2022-08-03T21:10:05.525Z,15.88
2022-08-03T21:13:10.601Z,20.75
2022-08-03T21:13:11.155Z,12.05
2022-08-03T21:13:22.586Z,9.90
2022-08-03T21:16:14.145Z,12.50
2022-08-03T21:19:03.339Z,11.25
2022-08-03T21:21:50.151Z,14.37
2022-08-03T21:24:40.500Z,14.13
2022-08-03T21:27:29.588Z,13.95
2022-08-03T21:30:15.356Z,15.18
2022-08-03T21:33:00.987Z,14.30
2022-08-03T21:35:46.533Z,16.45
2022-08-03T21:38:32.712Z,15.90
2022-08-03T21:41:17.648Z,12.70
2022-08-03T21:44:04.998Z,13.70
2022-08-03T21:46:53.286Z,14.85
2022-08-03T21:50:02.694Z,16.33
2022-08-03T21:52:51.010Z,18.27
2022-08-03T21:55:39.533Z,19.65
2022-08-03T21:58:32.140Z,21.10
2022-08-03T22:01:20.673Z,18.23
2022-08-03T22:04:07.384Z,19.13
2022-08-03T22:06:57.696Z,16.95
2022-08-03T22:09:51.354Z,19.15
2022-08-03T22:12:37.399Z,17.33
2022-08-03T22:15:23.041Z,15.63
2022-08-03T22:18:08.644Z,16.92
2022-08-03T22:20:56.095Z,21.98
2022-08-03T22:23:48.006Z,17.92
2022-08-03T22:26:36.009Z,17.98
2022-08-03T22:29:24.203Z,15.10
2022-08-03T22:32:10.012Z,21.52
2022-08-03T22:34:56.771Z,18.45
2022-08-03T22:37:48.407Z,16.25
2022-08-03T22:40:33.872Z,21.00
2022-08-03T22:43:24.371Z,18.00
2022-08-03T22:46:15.573Z,18.63
2022-08-03T22:49:02.246Z,19.30
2022-08-03T22:51:48.665Z,18.08
2022-08-03T22:54:35.335Z,16.73
2022-08-03T22:57:22.075Z,22.73
2022-08-03T23:00:13.340Z,23.83
2022-08-03T23:03:02.086Z,21.08
2022-08-03T23:06:02.320Z,15.55
2022-08-03T23:08:50.359Z,14.90
2022-08-03T23:11:37.953Z,20.15
2022-08-03T23:14:33.066Z,19.10
2022-08-03T23:17:20.411Z,18.25
2022-08-03T23:20:08.225Z,18.05
2022-08-03T23:22:54.703Z,16.30
2022-08-03T23:25:41.477Z,15.20
2022-08-03T23:28:29.123Z,11.05
2022-08-03T23:31:15.538Z,16.30
2022-08-03T23:34:19.545Z,12.35
2022-08-03T23:37:05.674Z,19.15
2022-08-03T23:39:52.869Z,16.80
2022-08-03T23:42:39.905Z,14.45
2022-08-03T23:45:27.552Z,19.50
2022-08-03T23:48:12.967Z,13.45
2022-08-03T23:51:06.597Z,14.82
2022-08-03T23:54:01.950Z,12.63
2022-08-03T23:57:15.920Z,14.70
